createdAt,value
2023-02-06T00:00:55.012Z,2.00
2023-02-06T00:03:21.849Z,2.00
2023-02-06T00:05:59.781Z,1.88
2023-02-06T00:08:27.456Z,1.80
2023-02-06T00:10:55.089Z,2.20
2023-02-06T00:13:22.135Z,1.98
2023-02-06T00:15:49.947Z,2.17
2023-02-06T00:18:18.901Z,1.98
2023-02-06T00:20:45.645Z,1.75
2023-02-06T00:23:12.412Z,1.90
2023-02-06T00:25:39.162Z,2.00
2023-02-06T00:28:06.042Z,2.15
2023-02-06T00:30:32.840Z,2.28
2023-02-06T00:33:07.065Z,1.98
2023-02-06T00:35:34.731Z,1.90
2023-02-06T00:38:02.411Z,2.10
2023-02-06T00:40:29.806Z,2.05
2023-02-06T00:42:56.605Z,1.80
2023-02-06T00:45:23.492Z,1.98
2023-02-06T00:47:50.264Z,2.00
2023-02-06T00:50:18.499Z,1.80
2023-02-06T00:52:45.921Z,1.70
2023-02-06T00:55:12.927Z,1.92
2023-02-06T00:57:39.668Z,2.10
2023-02-06T01:00:08.714Z,2.08
2023-02-06T01:02:35.729Z,1.80
2023-02-06T01:05:02.866Z,2.00
2023-02-06T01:07:29.812Z,1.85
2023-02-06T01:09:58.917Z,1.90
2023-02-06T01:12:25.724Z,1.77
2023-02-06T01:14:53.469Z,1.80
2023-02-06T01:17:20.201Z,2.00
2023-02-06T01:19:46.953Z,1.80
2023-02-06T01:22:13.779Z,1.70
2023-02-06T01:24:40.576Z,2.05
2023-02-06T01:27:10.669Z,2.00
2023-02-06T01:29:38.445Z,2.13
2023-02-06T01:32:05.089Z,1.88
2023-02-06T01:34:31.817Z,1.75
2023-02-06T01:36:58.560Z,1.73
2023-02-06T01:39:25.329Z,2.00
2023-02-06T01:41:52.101Z,2.10
2023-02-06T01:44:22.446Z,1.55
2023-02-06T01:46:54.753Z,1.92
2023-02-06T01:49:26.082Z,1.80
2023-02-06T01:52:15.969Z,2.15
2023-02-06T01:54:50.596Z,1.65
2023-02-06T01:57:18.467Z,1.80
2023-02-06T01:59:51.100Z,1.90
2023-02-06T02:02:18.370Z,1.83
2023-02-06T02:04:46.865Z,1.57
2023-02-06T02:07:22.328Z,1.77
2023-02-06T02:09:49.068Z,1.83
2023-02-06T02:12:18.616Z,1.70
2023-02-06T02:14:47.656Z,1.70
2023-02-06T02:17:44.797Z,1.65
2023-02-06T02:20:39.545Z,1.67
2023-02-06T02:23:26.180Z,1.58
2023-02-06T02:26:04.418Z,1.80
2023-02-06T02:28:34.180Z,2.00
2023-02-06T02:31:32.534Z,2.03
2023-02-06T02:34:18.385Z,2.00
2023-02-06T02:36:56.069Z,1.85
2023-02-06T02:39:47.178Z,1.92
2023-02-06T02:42:35.892Z,1.93
2023-02-06T02:45:23.013Z,1.65
2023-02-06T02:47:58.370Z,1.80
2023-02-06T02:50:26.445Z,1.80
2023-02-06T02:52:53.387Z,1.60
2023-02-06T02:55:22.998Z,1.70
2023-02-06T02:58:01.425Z,1.83
2023-02-06T03:00:30.688Z,1.58
2023-02-06T03:02:58.390Z,1.80
2023-02-06T03:05:26.897Z,1.73
2023-02-06T03:08:25.105Z,1.40
2023-02-06T03:11:14.760Z,1.90
2023-02-06T03:14:06.005Z,1.67
2023-02-06T03:17:03.056Z,1.88
2023-02-06T03:19:34.320Z,1.60
2023-02-06T03:22:03.526Z,1.80
2023-02-06T03:24:38.347Z,1.80
2023-02-06T03:27:13.407Z,1.70
2023-02-06T03:29:44.773Z,1.52
2023-02-06T03:32:24.036Z,1.55
2023-02-06T03:35:06.681Z,1.80
2023-02-06T03:37:35.357Z,1.77
2023-02-06T03:40:03.158Z,1.77
2023-02-06T03:42:30.816Z,1.80
2023-02-06T03:45:07.724Z,1.80
2023-02-06T03:47:37.863Z,1.90
2023-02-06T03:50:09.538Z,1.70
2023-02-06T03:52:40.912Z,1.70
2023-02-06T03:55:13.587Z,1.58
2023-02-06T03:57:42.961Z,1.50
2023-02-06T04:00:12.473Z,1.83
2023-02-06T04:02:40.166Z,1.60
2023-02-06T04:05:08.176Z,1.75
2023-02-06T04:07:36.989Z,1.70
2023-02-06T04:10:04.535Z,1.60
2023-02-06T04:12:31.396Z,1.70
2023-02-06T04:14:58.071Z,1.52
2023-02-06T04:17:43.075Z,2.00
2023-02-06T04:20:13.213Z,1.83
2023-02-06T04:22:40.571Z,1.70
2023-02-06T04:25:09.706Z,1.50
2023-02-06T04:27:37.299Z,1.67
2023-02-06T04:30:05.240Z,1.87
2023-02-06T04:32:32.007Z,1.80
2023-02-06T04:35:00.915Z,1.77
2023-02-06T04:37:27.656Z,1.70
2023-02-06T04:39:54.364Z,1.70
2023-02-06T04:42:21.122Z,1.70
2023-02-06T04:44:48.854Z,1.65
2023-02-06T04:47:15.589Z,1.63
2023-02-06T04:49:42.366Z,1.70
2023-02-06T04:52:09.105Z,1.83
2023-02-06T04:54:35.891Z,1.65
2023-02-06T04:57:03.622Z,1.37
2023-02-06T04:59:30.714Z,1.60
2023-02-06T05:01:57.377Z,1.70
2023-02-06T05:04:24.092Z,1.45
2023-02-06T05:06:50.792Z,1.50
2023-02-06T05:09:17.488Z,1.50
2023-02-06T05:11:44.235Z,1.65
2023-02-06T05:14:10.902Z,1.40
2023-02-06T05:16:37.620Z,1.80
2023-02-06T05:19:04.362Z,1.63
2023-02-06T05:21:31.112Z,1.65
2023-02-06T05:23:58.056Z,1.67
2023-02-06T05:26:25.034Z,1.60
2023-02-06T05:28:52.087Z,1.80
2023-02-06T05:31:20.207Z,1.50
2023-02-06T05:33:52.892Z,1.60
2023-02-06T05:36:20.673Z,1.55
2023-02-06T05:38:50.176Z,1.42
2023-02-06T05:41:17.087Z,1.60
2023-02-06T05:43:43.954Z,1.50
2023-02-06T05:46:12.774Z,1.38
2023-02-06T05:48:39.970Z,1.50
2023-02-06T05:51:06.861Z,1.40
2023-02-06T05:53:33.579Z,1.73
2023-02-06T05:56:00.405Z,1.40
2023-02-06T05:58:27.186Z,1.45
2023-02-06T06:00:53.913Z,1.50
2023-02-06T06:03:22.878Z,1.35
2023-02-06T06:05:50.124Z,1.50
2023-02-06T06:08:17.007Z,1.20
2023-02-06T06:10:43.712Z,1.65
2023-02-06T06:13:10.496Z,1.42
2023-02-06T06:15:37.843Z,1.40
2023-02-06T06:18:04.930Z,1.15
2023-02-06T06:20:32.535Z,1.30
2023-02-06T06:22:59.236Z,1.30
2023-02-06T06:25:26.061Z,1.20
2023-02-06T06:27:55.250Z,1.20
2023-02-06T06:30:21.934Z,1.15
2023-02-06T06:32:48.670Z,1.30
2023-02-06T06:35:17.564Z,1.20
2023-02-06T06:37:44.516Z,1.15
2023-02-06T06:40:11.772Z,1.35
2023-02-06T06:42:40.617Z,1.65
2023-02-06T06:45:08.581Z,1.60
2023-02-06T06:47:35.394Z,1.65
2023-02-06T06:50:02.086Z,1.40
2023-02-06T06:52:29.750Z,1.65
2023-02-06T06:54:56.540Z,1.65
2023-02-06T06:57:24.001Z,1.60
2023-02-06T06:59:50.872Z,1.90
2023-02-06T07:02:19.530Z,1.80
2023-02-06T07:04:46.416Z,1.60
2023-02-06T07:07:13.206Z,1.48
2023-02-06T07:09:39.957Z,1.80
2023-02-06T07:12:23.908Z,1.38
2023-02-06T07:14:50.688Z,1.50
2023-02-06T07:17:18.574Z,1.60
2023-02-06T07:19:48.101Z,1.48
2023-02-06T07:22:15.842Z,1.20
2023-02-06T07:24:44.687Z,1.70
2023-02-06T07:27:13.768Z,1.80
2023-02-06T07:29:43.325Z,1.73
2023-02-06T07:32:12.574Z,1.50
2023-02-06T07:34:40.584Z,1.67
2023-02-06T07:37:07.348Z,1.52
2023-02-06T07:39:34.129Z,1.60
2023-02-06T07:42:03.157Z,1.50
2023-02-06T07:44:42.963Z,1.47
2023-02-06T07:47:10.705Z,1.60
2023-02-06T07:49:39.532Z,1.40
2023-02-06T07:52:06.431Z,1.80
2023-02-06T07:54:35.507Z,1.50
2023-02-06T07:57:03.297Z,1.85
2023-02-06T07:59:32.201Z,1.60
2023-02-06T08:02:00.285Z,1.50
2023-02-06T08:04:29.313Z,1.70
2023-02-06T08:06:57.128Z,1.77
2023-02-06T08:09:23.794Z,1.63
2023-02-06T08:11:50.522Z,1.48
2023-02-06T08:14:17.279Z,1.80
2023-02-06T08:16:44.533Z,1.90
2023-02-06T08:19:13.631Z,1.95
2023-02-06T08:21:40.435Z,1.98
2023-02-06T08:24:09.593Z,1.70
2023-02-06T08:26:36.338Z,1.70
2023-02-06T08:29:07.501Z,2.00
2023-02-06T08:31:38.070Z,1.88
2023-02-06T08:34:06.564Z,2.07
2023-02-06T08:36:35.618Z,1.80
2023-02-06T08:39:03.793Z,2.20
2023-02-06T08:41:38.701Z,2.10
2023-02-06T08:44:09.152Z,1.90
2023-02-06T08:46:36.048Z,2.00
2023-02-06T08:49:13.523Z,2.33
2023-02-06T08:51:40.466Z,1.75
2023-02-06T08:54:11.762Z,2.00
2023-02-06T08:56:38.591Z,1.93
2023-02-06T08:59:07.346Z,2.30
2023-02-06T09:01:36.467Z,2.30
2023-02-06T09:04:07.332Z,1.83
2023-02-06T09:06:40.517Z,2.13
2023-02-06T09:09:08.619Z,1.92
2023-02-06T09:11:36.115Z,2.58
2023-02-06T09:14:05.010Z,2.53
2023-02-06T09:16:33.435Z,2.67
2023-02-06T09:19:01.652Z,1.97
2023-02-06T09:21:33.391Z,2.63
2023-02-06T09:24:05.325Z,2.13
2023-02-06T09:26:38.879Z,2.20
2023-02-06T09:29:10.068Z,2.20
2023-02-06T09:31:42.029Z,2.13
2023-02-06T09:34:09.506Z,2.40
2023-02-06T09:36:37.535Z,2.40
2023-02-06T09:39:06.177Z,2.17
2023-02-06T09:41:41.525Z,2.17
2023-02-06T09:44:20.835Z,2.17
2023-02-06T09:46:57.361Z,2.30
2023-02-06T09:49:46.101Z,2.10
2023-02-06T09:52:25.599Z,2.03
2023-02-06T09:54:55.120Z,2.10
2023-02-06T09:57:43.757Z,2.10
2023-02-06T10:00:53.403Z,2.10
2023-02-06T10:03:34.667Z,2.15
2023-02-06T10:06:07.212Z,2.30
2023-02-06T10:08:55.949Z,2.08
2023-02-06T10:11:58.087Z,2.10
2023-02-06T10:14:46.625Z,2.13
2023-02-06T10:17:34.986Z,2.30
2023-02-06T10:20:04.834Z,1.85
2023-02-06T10:22:39.968Z,2.07
2023-02-06T10:25:21.073Z,2.25
2023-02-06T10:27:56.503Z,2.10
2023-02-06T10:30:44.931Z,2.10
2023-02-06T10:33:40.866Z,1.80
2023-02-06T10:36:10.650Z,2.13
2023-02-06T10:38:59.188Z,1.77
2023-02-06T10:41:31.018Z,2.03
2023-02-06T10:44:17.712Z,1.92
2023-02-06T10:46:48.367Z,2.08
2023-02-06T10:49:30.295Z,2.08
2023-02-06T10:52:07.547Z,1.92
2023-02-06T10:54:38.720Z,2.20
2023-02-06T10:57:14.046Z,2.20
2023-02-06T10:59:48.010Z,1.93
2023-02-06T11:02:19.882Z,1.92
2023-02-06T11:04:59.025Z,2.40
2023-02-06T11:07:54.989Z,2.03
2023-02-06T11:10:24.296Z,2.10
2023-02-06T11:13:21.032Z,2.10
2023-02-06T11:15:52.577Z,2.30
2023-02-06T11:18:27.786Z,2.00
2023-02-06T11:20:56.482Z,2.80
2023-02-06T11:23:26.098Z,2.42
2023-02-06T11:26:14.669Z,2.55
2023-02-06T11:28:56.496Z,2.20
2023-02-06T11:31:45.301Z,2.15
2023-02-06T11:34:30.156Z,2.10
2023-02-06T11:37:21.427Z,2.03
2023-02-06T11:39:50.349Z,2.25
2023-02-06T11:42:22.407Z,2.35
2023-02-06T11:44:49.705Z,2.30
2023-02-06T11:47:37.712Z,2.45
2023-02-06T11:50:14.762Z,2.75
2023-02-06T11:52:46.851Z,2.42
2023-02-06T11:55:27.399Z,2.40
2023-02-06T11:58:05.993Z,2.45
2023-02-06T12:00:33.801Z,2.43
2023-02-06T12:03:03.719Z,2.45
2023-02-06T12:05:35.493Z,2.80
2023-02-06T12:08:10.266Z,3.25
2023-02-06T12:10:42.986Z,2.90
2023-02-06T12:13:20.555Z,2.67
2023-02-06T12:15:53.226Z,2.97
2023-02-06T12:18:27.890Z,2.70
2023-02-06T12:20:59.712Z,2.70
2023-02-06T12:23:32.637Z,2.90
2023-02-06T12:26:03.722Z,3.10
2023-02-06T12:28:36.916Z,2.90
2023-02-06T12:31:11.783Z,2.90
2023-02-06T12:33:55.056Z,2.60
2023-02-06T12:36:39.688Z,2.83
2023-02-06T12:39:17.711Z,2.60
2023-02-06T12:42:15.432Z,2.30
2023-02-06T12:44:57.303Z,2.67
2023-02-06T12:47:38.800Z,2.53
2023-02-06T12:50:25.669Z,2.83
2023-02-06T12:53:04.171Z,2.50
2023-02-06T12:56:02.668Z,2.55
2023-02-06T12:58:44.476Z,2.40
2023-02-06T13:01:41.027Z,2.53
2023-02-06T13:04:15.983Z,2.05
2023-02-06T13:06:56.116Z,2.85
2023-02-06T13:10:00.618Z,2.17
2023-02-06T13:12:29.840Z,2.47
2023-02-06T13:15:04.309Z,2.40
2023-02-06T13:17:36.799Z,2.17
2023-02-06T13:20:15.075Z,2.13
2023-02-06T13:22:50.813Z,2.10
2023-02-06T13:25:30.557Z,2.50
2023-02-06T13:28:22.083Z,2.35
2023-02-06T13:30:50.696Z,1.90
2023-02-06T13:33:23.940Z,1.90
2023-02-06T13:35:59.892Z,2.03
2023-02-06T13:38:37.986Z,2.00
2023-02-06T13:41:16.397Z,1.98
2023-02-06T13:44:29.605Z,2.08
2023-02-06T13:47:20.362Z,2.75
2023-02-06T13:50:08.528Z,1.75
2023-02-06T13:52:49.365Z,2.00
2023-02-06T13:55:34.726Z,2.10
2023-02-06T13:58:20.458Z,2.00
2023-02-06T14:00:50.406Z,1.80
2023-02-06T14:03:26.102Z,1.90
2023-02-06T14:06:20.698Z,1.80
2023-02-06T14:09:02.476Z,1.90
2023-02-06T14:12:03.658Z,1.70
2023-02-06T14:15:06.938Z,2.08
2023-02-06T14:18:11.133Z,1.67
2023-02-06T14:20:38.764Z,1.98
2023-02-06T14:23:32.828Z,1.90
2023-02-06T14:26:12.853Z,1.88
2023-02-06T14:28:48.765Z,1.80
2023-02-06T14:31:29.555Z,1.80
2023-02-06T14:34:12.309Z,1.92
2023-02-06T14:36:51.746Z,1.83
2023-02-06T14:39:36.040Z,1.85
2023-02-06T14:42:16.349Z,2.08
2023-02-06T14:44:46.073Z,1.60
2023-02-06T14:47:24.789Z,1.60
2023-02-06T14:49:53.748Z,1.80
2023-02-06T14:52:25.557Z,2.13
2023-02-06T14:54:52.421Z,1.90
2023-02-06T14:57:23.610Z,1.95
2023-02-06T15:00:04.319Z,2.63
2023-02-06T15:02:34.885Z,2.13
2023-02-06T15:05:06.465Z,2.47
2023-02-06T15:07:36.479Z,2.23
2023-02-06T15:10:15.989Z,2.25
2023-02-06T15:12:51.995Z,2.25
2023-02-06T15:15:25.257Z,2.70
2023-02-06T15:18:04.580Z,2.47
2023-02-06T15:20:36.948Z,2.70
2023-02-06T15:23:17.001Z,2.50
2023-02-06T15:26:02.477Z,2.40
2023-02-06T15:28:32.428Z,2.50
2023-02-06T15:31:00.998Z,2.37
2023-02-06T15:33:33.753Z,2.40
2023-02-06T15:36:03.219Z,2.30
2023-02-06T15:38:33.303Z,2.13
2023-02-06T15:41:06.955Z,2.20
2023-02-06T15:43:35.441Z,2.60
2023-02-06T15:46:04.387Z,2.00
2023-02-06T15:48:35.398Z,2.53
2023-02-06T15:51:48.879Z,2.40
2023-02-06T15:54:20.790Z,2.47
2023-02-06T15:56:51.237Z,2.40
2023-02-06T15:59:24.834Z,2.30
2023-02-06T16:01:54.338Z,2.15
2023-02-06T16:04:24.128Z,2.22
2023-02-06T16:07:07.028Z,2.42
2023-02-06T16:09:42.225Z,1.83
2023-02-06T16:12:09.802Z,2.50
2023-02-06T16:14:40.107Z,2.42
2023-02-06T16:17:12.696Z,2.13
2023-02-06T16:19:56.103Z,2.17
2023-02-06T16:22:27.690Z,1.90
2023-02-06T16:25:12.783Z,1.80
2023-02-06T16:27:45.146Z,2.10
2023-02-06T16:30:21.065Z,2.20
2023-02-06T16:32:48.100Z,2.17
2023-02-06T16:35:15.171Z,2.10
2023-02-06T16:37:42.035Z,2.10
2023-02-06T16:40:09.283Z,2.00
2023-02-06T16:42:38.558Z,1.97
2023-02-06T16:45:15.590Z,2.25
2023-02-06T16:47:42.428Z,2.15
2023-02-06T16:50:10.617Z,1.95
2023-02-06T16:52:40.706Z,1.92
2023-02-06T16:55:16.779Z,1.73
2023-02-06T16:57:45.084Z,2.00
2023-02-06T17:00:23.797Z,2.30
2023-02-06T17:02:53.804Z,1.90
2023-02-06T17:05:27.222Z,1.95
2023-02-06T17:07:54.219Z,2.05
2023-02-06T17:10:26.617Z,2.30
2023-02-06T17:12:53.992Z,2.20
2023-02-06T17:15:21.187Z,2.03
2023-02-06T17:17:48.136Z,1.70
2023-02-06T17:20:29.786Z,2.15
2023-02-06T17:22:57.402Z,2.03
2023-02-06T17:25:25.158Z,2.07
2023-02-06T17:27:53.669Z,1.80
2023-02-06T17:30:22.899Z,2.22
2023-02-06T17:32:49.734Z,1.98
2023-02-06T17:35:19.625Z,1.93
2023-02-06T17:37:49.200Z,2.20
2023-02-06T17:40:23.418Z,1.75
2023-02-06T17:42:53.908Z,1.92
2023-02-06T17:45:21.240Z,1.75
2023-02-06T17:47:48.420Z,1.65
2023-02-06T17:50:18.342Z,1.75
2023-02-06T17:52:46.355Z,1.80
2023-02-06T17:55:14.367Z,2.17
2023-02-06T17:57:41.426Z,1.67
2023-02-06T18:00:13.839Z,2.00
2023-02-06T18:02:40.696Z,2.13
2023-02-06T18:05:08.221Z,1.90
2023-02-06T18:07:35.151Z,2.00
2023-02-06T18:10:02.023Z,1.63
2023-02-06T18:12:28.965Z,1.77
2023-02-06T18:14:55.758Z,1.90
2023-02-06T18:17:23.723Z,1.80
2023-02-06T18:19:50.581Z,1.60
2023-02-06T18:22:19.745Z,1.63
2023-02-06T18:24:47.997Z,1.50
2023-02-06T18:27:15.894Z,1.70
2023-02-06T18:29:49.856Z,1.97
2023-02-06T18:32:19.872Z,1.80
2023-02-06T18:34:48.960Z,1.85
2023-02-06T18:37:16.149Z,2.03
2023-02-06T18:39:43.376Z,1.55
2023-02-06T18:42:31.121Z,1.90
2023-02-06T18:44:58.056Z,1.90
2023-02-06T18:47:26.866Z,1.80
2023-02-06T18:49:55.958Z,1.65
2023-02-06T18:52:23.132Z,1.80
2023-02-06T18:54:49.974Z,2.00
2023-02-06T18:57:17.210Z,1.70
2023-02-06T18:59:46.929Z,1.90
2023-02-06T19:02:20.921Z,1.70
2023-02-06T19:04:47.974Z,1.90
2023-02-06T19:07:16.142Z,1.88
2023-02-06T19:09:43.279Z,1.98
2023-02-06T19:12:12.198Z,2.10
2023-02-06T19:14:39.873Z,2.10
2023-02-06T19:17:06.770Z,1.92
2023-02-06T19:19:33.538Z,1.87
2023-02-06T19:22:00.333Z,2.00
2023-02-06T19:24:28.282Z,1.70
2023-02-06T19:26:56.366Z,2.03
2023-02-06T19:29:34.703Z,1.90
2023-02-06T19:32:06.734Z,2.20
2023-02-06T19:34:36.493Z,2.10
2023-02-06T19:37:04.873Z,2.10
2023-02-06T19:39:35.675Z,2.00
2023-02-06T19:42:06.383Z,2.17
2023-02-06T19:44:33.993Z,2.15
2023-02-06T19:47:00.787Z,2.53
2023-02-06T19:49:28.465Z,2.08
2023-02-06T19:51:55.281Z,2.17
2023-02-06T19:54:24.510Z,2.03
2023-02-06T19:56:52.175Z,2.10
2023-02-06T19:59:22.078Z,1.80
2023-02-06T20:01:55.175Z,2.15
2023-02-06T20:04:24.596Z,2.08
2023-02-06T20:06:51.804Z,2.30
2023-02-06T20:09:20.572Z,2.30
2023-02-06T20:11:48.963Z,1.95
2023-02-06T20:14:17.181Z,2.10
2023-02-06T20:16:45.119Z,2.17
2023-02-06T20:19:15.618Z,1.95
2023-02-06T20:21:45.910Z,2.03
2023-02-06T20:24:15.554Z,2.25
2023-02-06T20:26:43.326Z,2.30
2023-02-06T20:29:23.972Z,2.38
2023-02-06T20:31:51.273Z,2.50
2023-02-06T20:34:20.162Z,2.42
2023-02-06T20:36:55.405Z,2.50
2023-02-06T20:39:22.472Z,2.60
2023-02-06T20:41:50.259Z,2.50
2023-02-06T20:44:18.658Z,2.65
2023-02-06T20:46:46.738Z,2.47
2023-02-06T20:49:28.724Z,2.67
2023-02-06T20:51:58.010Z,2.50
2023-02-06T20:54:27.162Z,3.10
2023-02-06T20:56:53.983Z,2.40
2023-02-06T20:59:21.285Z,2.72
2023-02-06T21:01:51.612Z,3.03
2023-02-06T21:04:19.668Z,2.50
2023-02-06T21:06:48.456Z,2.85
2023-02-06T21:09:15.899Z,3.00
2023-02-06T21:11:45.693Z,2.72
2023-02-06T21:14:14.684Z,3.13
2023-02-06T21:16:44.210Z,3.20
2023-02-06T21:19:13.180Z,3.08
2023-02-06T21:21:40.493Z,3.20
2023-02-06T21:24:08.590Z,3.30
2023-02-06T21:26:36.245Z,3.40
2023-02-06T21:29:06.021Z,3.33
2023-02-06T21:31:37.031Z,3.83
2023-02-06T21:34:11.525Z,3.15
2023-02-06T21:36:41.990Z,3.10
2023-02-06T21:39:09.878Z,3.10
2023-02-06T21:41:37.638Z,3.28
2023-02-06T21:44:04.877Z,3.28
2023-02-06T21:46:31.861Z,3.40
2023-02-06T21:48:58.884Z,3.33
2023-02-06T21:51:28.485Z,3.17
2023-02-06T21:53:56.389Z,3.40
2023-02-06T21:56:26.658Z,3.70
2023-02-06T21:58:55.174Z,3.38
2023-02-06T22:01:28.495Z,3.30
2023-02-06T22:03:56.886Z,3.40
2023-02-06T22:06:23.933Z,3.30
2023-02-06T22:08:55.711Z,3.28
2023-02-06T22:11:24.590Z,3.20
2023-02-06T22:13:53.452Z,3.00
2023-02-06T22:16:22.169Z,3.10
2023-02-06T22:18:49.689Z,3.17
2023-02-06T22:21:19.951Z,3.30
2023-02-06T22:23:48.567Z,3.20
2023-02-06T22:26:17.461Z,3.15
2023-02-06T22:28:46.682Z,3.58
2023-02-06T22:31:21.065Z,3.08
2023-02-06T22:33:48.831Z,3.30
2023-02-06T22:36:19.887Z,3.20
2023-02-06T22:38:48.040Z,3.10
2023-02-06T22:41:16.570Z,3.20
2023-02-06T22:43:45.052Z,3.70
2023-02-06T22:46:33.921Z,3.20
2023-02-06T22:49:01.313Z,3.08
2023-02-06T22:51:28.622Z,3.25
2023-02-06T22:53:55.461Z,3.40
2023-02-06T22:56:37.896Z,3.40
2023-02-06T22:59:09.166Z,3.22
2023-02-06T23:01:43.154Z,3.22
2023-02-06T23:04:21.989Z,3.45
2023-02-06T23:06:49.640Z,3.38
2023-02-06T23:09:25.106Z,3.50
2023-02-06T23:11:52.752Z,3.33
2023-02-06T23:14:19.842Z,3.42
2023-02-06T23:16:48.541Z,3.30
2023-02-06T23:19:17.531Z,3.35
2023-02-06T23:21:48.334Z,3.65
2023-02-06T23:24:16.655Z,3.17
2023-02-06T23:26:45.993Z,3.42
2023-02-06T23:29:15.768Z,3.63
2023-02-06T23:31:43.576Z,3.45
2023-02-06T23:34:11.577Z,3.63
2023-02-06T23:36:38.366Z,3.67
2023-02-06T23:39:05.377Z,3.70
2023-02-06T23:41:32.952Z,3.80
2023-02-06T23:44:07.342Z,4.20
2023-02-06T23:46:38.213Z,4.03
2023-02-06T23:49:06.303Z,4.38
2023-02-06T23:51:35.011Z,4.82
2023-02-06T23:54:02.197Z,4.70
2023-02-06T23:56:30.215Z,4.23
2023-02-06T23:58:58.586Z,4.40
